createdAt,value
2023-05-20T00:00:44.914Z,6.59
2023-05-20T00:03:11.551Z,6.70
2023-05-20T00:05:38.354Z,6.98
2023-05-20T00:08:07.779Z,6.67
2023-05-20T00:10:34.369Z,6.83
2023-05-20T00:13:01.235Z,7.05
2023-05-20T00:15:28.320Z,6.76
2023-05-20T00:17:55.474Z,7.03
2023-05-20T00:20:22.203Z,6.73
2023-05-20T00:22:48.900Z,6.46
2023-05-20T00:25:15.592Z,6.93
2023-05-20T00:27:42.365Z,6.86
2023-05-20T00:30:09.512Z,6.98
2023-05-20T00:32:36.174Z,6.88
2023-05-20T00:35:03.967Z,6.72
2023-05-20T00:37:30.576Z,6.93
2023-05-20T00:39:57.201Z,6.84
2023-05-20T00:42:25.760Z,6.93
2023-05-20T00:44:53.094Z,6.98
2023-05-20T00:47:26.079Z,6.45
2023-05-20T00:49:52.975Z,6.98
2023-05-20T00:52:19.704Z,6.72
2023-05-20T00:54:46.790Z,7.06
2023-05-20T00:57:13.972Z,6.95
2023-05-20T00:59:44.842Z,6.90
2023-05-20T01:02:11.916Z,6.79
2023-05-20T01:04:38.999Z,6.89
2023-05-20T01:07:07.222Z,6.85
2023-05-20T01:09:34.242Z,6.75
2023-05-20T01:12:18.070Z,7.12
2023-05-20T01:14:51.197Z,7.22
2023-05-20T01:17:21.014Z,6.92
2023-05-20T01:19:49.006Z,7.37
2023-05-20T01:22:16.124Z,7.61
2023-05-20T01:24:44.738Z,7.29
2023-05-20T01:27:13.532Z,7.38
2023-05-20T01:29:42.783Z,7.07
2023-05-20T01:32:20.427Z,7.01
2023-05-20T01:34:50.478Z,7.12
2023-05-20T01:37:19.123Z,7.50
2023-05-20T01:39:50.391Z,7.56
2023-05-20T01:42:17.766Z,7.12
2023-05-20T01:44:44.880Z,7.27
2023-05-20T01:47:11.464Z,7.98
2023-05-20T01:49:38.066Z,6.92
2023-05-20T01:52:05.731Z,7.48
2023-05-20T01:54:32.326Z,7.60
2023-05-20T01:56:59.008Z,7.50
2023-05-20T01:59:25.635Z,7.23
2023-05-20T02:01:52.340Z,7.76
2023-05-20T02:04:19.272Z,7.63
2023-05-20T02:06:46.181Z,7.65
2023-05-20T02:09:13.257Z,7.88
2023-05-20T02:11:39.964Z,6.98
2023-05-20T02:14:06.567Z,7.60
2023-05-20T02:16:33.173Z,7.37
2023-05-20T02:18:59.852Z,7.48
2023-05-20T02:21:26.480Z,7.60
2023-05-20T02:23:53.035Z,7.67
2023-05-20T02:26:22.570Z,7.37
2023-05-20T02:28:50.768Z,7.97
2023-05-20T02:31:17.980Z,7.70
2023-05-20T02:33:45.682Z,7.76
2023-05-20T02:36:12.474Z,7.58
2023-05-20T02:38:39.266Z,7.65
2023-05-20T02:41:05.994Z,7.53
2023-05-20T02:43:33.723Z,7.69
2023-05-20T02:46:00.542Z,7.97
2023-05-20T02:48:27.223Z,7.50
2023-05-20T02:50:53.829Z,8.17
2023-05-20T02:53:20.981Z,7.53
2023-05-20T02:55:48.527Z,7.55
2023-05-20T02:58:15.188Z,7.68
2023-05-20T03:00:41.728Z,7.40
2023-05-20T03:03:10.264Z,7.96
2023-05-20T03:05:37.591Z,7.74
2023-05-20T03:08:10.001Z,7.81
2023-05-20T03:10:37.714Z,7.85
2023-05-20T03:13:09.439Z,7.98
2023-05-20T03:15:36.740Z,8.13
2023-05-20T03:18:03.844Z,8.14
2023-05-20T03:20:32.609Z,7.85
2023-05-20T03:22:59.256Z,7.93
2023-05-20T03:25:26.334Z,8.04
2023-05-20T03:27:53.006Z,8.35
2023-05-20T03:30:19.866Z,8.08
2023-05-20T03:32:46.593Z,8.16
2023-05-20T03:35:13.361Z,8.28
2023-05-20T03:37:39.968Z,8.23
2023-05-20T03:40:07.743Z,8.36
2023-05-20T03:42:34.634Z,8.44
2023-05-20T03:45:01.522Z,8.37
2023-05-20T03:47:28.646Z,8.35
2023-05-20T03:49:55.397Z,8.08
2023-05-20T03:52:22.216Z,8.60
2023-05-20T03:54:48.782Z,8.60
2023-05-20T03:57:15.821Z,8.67
2023-05-20T03:59:42.498Z,8.38
2023-05-20T04:02:09.714Z,8.92
2023-05-20T04:04:36.489Z,9.04
2023-05-20T04:07:04.853Z,8.63
2023-05-20T04:09:31.481Z,8.49
2023-05-20T04:11:58.074Z,8.96
2023-05-20T04:14:24.883Z,8.56
2023-05-20T04:16:52.487Z,8.66
2023-05-20T04:19:24.250Z,9.10
2023-05-20T04:21:50.993Z,8.75
2023-05-20T04:24:17.579Z,8.87
2023-05-20T04:26:44.480Z,8.80
2023-05-20T04:29:11.906Z,8.19
2023-05-20T04:31:38.604Z,8.21
2023-05-20T04:34:05.431Z,8.45
2023-05-20T04:36:32.365Z,8.05
2023-05-20T04:38:58.981Z,8.63
2023-05-20T04:41:25.636Z,8.61
2023-05-20T04:43:52.180Z,8.74
2023-05-20T04:46:20.475Z,8.31
2023-05-20T04:48:48.028Z,8.42
2023-05-20T04:51:14.623Z,8.90
2023-05-20T04:53:41.180Z,8.83
2023-05-20T04:56:08.163Z,8.40
2023-05-20T04:58:35.417Z,8.65
2023-05-20T05:01:02.512Z,8.51
2023-05-20T05:03:29.297Z,8.54
2023-05-20T05:05:57.288Z,8.59
2023-05-20T05:08:23.960Z,8.10
2023-05-20T05:10:51.087Z,8.03
2023-05-20T05:13:17.747Z,8.93
2023-05-20T05:15:44.344Z,8.54
2023-05-20T05:18:11.159Z,8.32
2023-05-20T05:20:37.758Z,7.94
2023-05-20T05:23:04.362Z,7.76
2023-05-20T05:25:31.265Z,8.19
2023-05-20T05:27:58.024Z,7.90
2023-05-20T05:30:24.757Z,7.95
2023-05-20T05:32:51.458Z,8.06
2023-05-20T05:35:18.397Z,7.56
2023-05-20T05:37:45.103Z,7.65
2023-05-20T05:40:12.117Z,7.59
2023-05-20T05:42:38.751Z,7.69
2023-05-20T05:45:06.081Z,8.04
2023-05-20T05:47:32.983Z,7.88
2023-05-20T05:50:02.275Z,7.42
2023-05-20T05:52:28.903Z,7.83
2023-05-20T05:54:55.689Z,7.57
2023-05-20T05:57:22.378Z,8.00
2023-05-20T05:59:48.977Z,7.41
2023-05-20T06:02:15.630Z,7.20
2023-05-20T06:04:42.269Z,7.29
2023-05-20T06:07:08.878Z,7.22
2023-05-20T06:09:35.549Z,6.77
2023-05-20T06:12:02.443Z,6.34
2023-05-20T06:14:29.284Z,6.75
2023-05-20T06:16:56.049Z,6.47
2023-05-20T06:19:22.811Z,6.48
2023-05-20T06:21:49.434Z,6.45
2023-05-20T06:24:16.096Z,6.10
2023-05-20T06:26:42.870Z,6.19
2023-05-20T06:29:12.440Z,5.95
2023-05-20T06:31:39.416Z,5.69
2023-05-20T06:34:09.201Z,5.91
2023-05-20T06:36:35.833Z,5.76
2023-05-20T06:39:02.448Z,5.69
2023-05-20T06:41:29.054Z,5.81
2023-05-20T06:43:57.084Z,5.53
2023-05-20T06:46:23.663Z,5.39
2023-05-20T06:48:50.401Z,5.35
2023-05-20T06:51:16.974Z,5.23
2023-05-20T06:53:43.573Z,5.30
2023-05-20T06:56:10.205Z,5.08
2023-05-20T06:58:36.778Z,4.96
2023-05-20T07:01:03.360Z,5.15
2023-05-20T07:03:29.977Z,5.33
2023-05-20T07:05:57.792Z,5.06
2023-05-20T07:08:24.538Z,6.42
2023-05-20T07:10:51.461Z,5.55
2023-05-20T07:13:18.338Z,5.27
2023-05-20T07:15:48.183Z,4.75
2023-05-20T07:18:15.037Z,4.90
2023-05-20T07:20:41.655Z,4.58
2023-05-20T07:23:08.382Z,5.30
2023-05-20T07:25:35.157Z,4.52
2023-05-20T07:28:01.921Z,4.36
2023-05-20T07:30:28.627Z,4.23
2023-05-20T07:32:55.247Z,4.34
2023-05-20T07:35:21.981Z,4.04
2023-05-20T07:37:48.676Z,4.32
2023-05-20T07:40:15.506Z,4.03
2023-05-20T07:42:42.096Z,4.27
2023-05-20T07:45:09.323Z,3.86
2023-05-20T07:47:35.910Z,3.66
2023-05-20T07:50:02.537Z,3.66
2023-05-20T07:52:29.129Z,3.41
2023-05-20T07:54:56.129Z,3.34
2023-05-20T07:57:22.751Z,3.35
2023-05-20T07:59:49.289Z,3.41
2023-05-20T08:02:18.868Z,2.96
2023-05-20T08:04:45.401Z,2.95
2023-05-20T08:07:11.995Z,3.05
2023-05-20T08:09:38.594Z,2.96
2023-05-20T08:12:05.792Z,3.08
2023-05-20T08:14:32.434Z,3.14
2023-05-20T08:16:59.878Z,2.79
2023-05-20T08:19:26.529Z,2.73
2023-05-20T08:21:53.507Z,2.70
2023-05-20T08:24:20.150Z,2.79
2023-05-20T08:26:46.760Z,2.64
2023-05-20T08:29:13.444Z,2.76
2023-05-20T08:31:40.262Z,2.63
2023-05-20T08:34:08.080Z,2.72
2023-05-20T08:36:34.841Z,2.71
2023-05-20T08:39:01.798Z,2.40
2023-05-20T08:41:29.124Z,2.47
2023-05-20T08:43:59.264Z,2.49
2023-05-20T08:46:26.753Z,2.46
2023-05-20T08:48:53.417Z,2.58
2023-05-20T08:51:23.730Z,2.49
2023-05-20T08:53:51.192Z,2.34
2023-05-20T08:56:18.137Z,2.55
2023-05-20T08:58:46.724Z,2.53
2023-05-20T09:01:13.429Z,2.39
2023-05-20T09:03:40.102Z,2.40
2023-05-20T09:06:08.567Z,2.65
2023-05-20T09:08:36.196Z,2.51
2023-05-20T09:11:03.452Z,2.45
2023-05-20T09:13:32.592Z,2.69
2023-05-20T09:16:02.507Z,2.55
2023-05-20T09:18:30.241Z,2.41
2023-05-20T09:20:57.693Z,2.50
2023-05-20T09:23:27.844Z,2.80
2023-05-20T09:25:54.565Z,2.80
2023-05-20T09:28:25.251Z,2.65
2023-05-20T09:30:58.009Z,2.71
2023-05-20T09:33:29.875Z,2.80
2023-05-20T09:36:08.822Z,2.60
2023-05-20T09:38:39.672Z,2.70
2023-05-20T09:41:10.409Z,2.49
2023-05-20T09:43:38.567Z,2.67
2023-05-20T09:46:05.722Z,2.50
2023-05-20T09:48:36.173Z,2.78
2023-05-20T09:51:04.513Z,2.72
2023-05-20T09:53:31.467Z,2.60
2023-05-20T09:55:58.370Z,2.78
2023-05-20T09:58:25.854Z,2.72
2023-05-20T10:00:53.934Z,2.74
2023-05-20T10:03:29.151Z,2.69
2023-05-20T10:06:09.881Z,2.73
2023-05-20T10:08:57.265Z,3.05
2023-05-20T10:11:56.273Z,2.55
2023-05-20T10:15:01.382Z,2.77
2023-05-20T10:17:40.153Z,2.83
2023-05-20T10:20:12.101Z,2.64
2023-05-20T10:22:41.734Z,2.77
2023-05-20T10:25:27.931Z,2.74
2023-05-20T10:28:08.057Z,2.66
2023-05-20T10:30:35.713Z,2.94
2023-05-20T10:33:07.069Z,2.69
2023-05-20T10:35:34.042Z,3.14
2023-05-20T10:38:10.334Z,2.88
2023-05-20T10:40:37.225Z,2.84
2023-05-20T10:43:25.382Z,2.91
2023-05-20T10:45:54.403Z,3.01
2023-05-20T10:48:26.082Z,2.85
2023-05-20T10:51:06.427Z,2.77
2023-05-20T10:53:40.862Z,2.44
2023-05-20T10:56:17.491Z,2.64
2023-05-20T10:58:47.324Z,2.83
2023-05-20T11:01:15.121Z,3.04
2023-05-20T11:03:43.424Z,2.93
2023-05-20T11:06:16.164Z,2.90
2023-05-20T11:08:46.090Z,2.86
2023-05-20T11:11:14.911Z,2.53
2023-05-20T11:13:41.695Z,3.01
2023-05-20T11:16:09.191Z,3.12
2023-05-20T11:18:36.420Z,3.01
2023-05-20T11:21:03.147Z,3.58
2023-05-20T11:23:30.717Z,3.65
2023-05-20T11:25:57.930Z,2.97
2023-05-20T11:28:24.890Z,3.20
2023-05-20T11:30:53.055Z,2.98
2023-05-20T11:33:19.930Z,3.05
2023-05-20T11:35:49.505Z,3.05
2023-05-20T11:38:16.909Z,2.91
2023-05-20T11:40:50.421Z,2.96
2023-05-20T11:43:18.949Z,2.79
2023-05-20T11:45:56.669Z,2.95
2023-05-20T11:48:24.050Z,2.94
2023-05-20T11:50:50.807Z,3.12
2023-05-20T11:53:18.934Z,3.04
2023-05-20T11:55:53.156Z,2.98
2023-05-20T11:58:24.889Z,3.04
2023-05-20T12:00:57.174Z,3.04
2023-05-20T12:03:32.969Z,3.19
2023-05-20T12:06:02.278Z,3.04
2023-05-20T12:08:29.376Z,3.08
2023-05-20T12:10:56.243Z,3.01
2023-05-20T12:13:23.763Z,2.94
2023-05-20T12:15:50.535Z,3.00
2023-05-20T12:18:17.286Z,3.11
2023-05-20T12:20:43.843Z,2.63
2023-05-20T12:23:10.487Z,2.75
2023-05-20T12:25:37.073Z,2.84
2023-05-20T12:28:03.839Z,2.83
2023-05-20T12:30:30.984Z,2.69
2023-05-20T12:32:57.674Z,2.78
2023-05-20T12:35:39.419Z,2.83
2023-05-20T12:38:06.967Z,2.77
2023-05-20T12:40:34.362Z,2.94
2023-05-20T12:43:02.975Z,2.75
2023-05-20T12:45:29.717Z,2.81
2023-05-20T12:47:57.416Z,2.94
2023-05-20T12:50:25.362Z,2.79
2023-05-20T12:52:51.953Z,2.89
2023-05-20T12:55:18.652Z,2.79
2023-05-20T12:57:46.433Z,2.70
2023-05-20T13:00:13.608Z,2.79
2023-05-20T13:02:42.128Z,2.71
2023-05-20T13:05:10.021Z,2.62
2023-05-20T13:07:36.814Z,2.84
2023-05-20T13:10:03.681Z,2.90
2023-05-20T13:12:30.404Z,2.89
2023-05-20T13:14:56.971Z,2.74
2023-05-20T13:17:23.535Z,2.85
2023-05-20T13:19:50.351Z,2.85
2023-05-20T13:22:17.036Z,3.03
2023-05-20T13:24:43.812Z,2.85
2023-05-20T13:27:13.367Z,2.70
2023-05-20T13:29:40.013Z,2.80
2023-05-20T13:32:06.784Z,2.82
2023-05-20T13:34:33.552Z,2.93
2023-05-20T13:37:00.135Z,2.62
2023-05-20T13:39:27.094Z,2.65
2023-05-20T13:41:54.984Z,2.94
2023-05-20T13:44:21.853Z,2.82
2023-05-20T13:46:48.489Z,3.04
2023-05-20T13:49:15.216Z,2.76
2023-05-20T13:51:41.772Z,2.82
2023-05-20T13:54:08.408Z,2.83
2023-05-20T13:56:35.136Z,2.87
2023-05-20T13:59:01.724Z,2.66
2023-05-20T14:01:30.581Z,2.99
2023-05-20T14:04:00.133Z,2.98
2023-05-20T14:06:27.432Z,3.16
2023-05-20T14:08:54.856Z,2.89
2023-05-20T14:11:21.807Z,2.82
2023-05-20T14:13:48.484Z,2.65
2023-05-20T14:16:15.558Z,2.55
2023-05-20T14:18:42.386Z,2.69
2023-05-20T14:21:09.087Z,2.43
2023-05-20T14:23:35.643Z,2.66
2023-05-20T14:26:02.239Z,2.68
2023-05-20T14:28:28.777Z,2.95
2023-05-20T14:30:55.404Z,2.78
2023-05-20T14:33:22.018Z,2.57
2023-05-20T14:35:48.611Z,2.51
2023-05-20T14:38:15.203Z,2.64
2023-05-20T14:40:41.869Z,2.43
2023-05-20T14:43:08.465Z,2.30
2023-05-20T14:45:35.041Z,2.29
2023-05-20T14:48:01.813Z,2.36
2023-05-20T14:50:28.532Z,2.35
2023-05-20T14:52:55.212Z,2.52
2023-05-20T14:55:21.813Z,2.55
2023-05-20T14:57:48.476Z,2.64
2023-05-20T15:00:15.406Z,2.57
2023-05-20T15:02:42.231Z,2.60
2023-05-20T15:05:11.841Z,2.45
2023-05-20T15:07:38.682Z,2.58
2023-05-20T15:10:05.618Z,2.45
2023-05-20T15:12:37.595Z,2.55
2023-05-20T15:15:04.769Z,2.64
2023-05-20T15:17:31.430Z,2.49
2023-05-20T15:19:58.161Z,2.73
2023-05-20T15:22:28.766Z,2.50
2023-05-20T15:24:55.505Z,2.49
2023-05-20T15:27:22.070Z,2.68
2023-05-20T15:29:50.037Z,2.68
2023-05-20T15:32:16.852Z,2.53
2023-05-20T15:34:43.403Z,2.70
2023-05-20T15:37:09.971Z,2.49
2023-05-20T15:39:39.478Z,2.44
2023-05-20T15:42:06.546Z,2.55
2023-05-20T15:44:33.628Z,2.62
2023-05-20T15:47:00.197Z,2.58
2023-05-20T15:49:26.856Z,2.54
2023-05-20T15:52:03.134Z,2.74
2023-05-20T15:54:31.060Z,2.74
2023-05-20T15:56:58.101Z,2.73
2023-05-20T15:59:24.866Z,2.95
2023-05-20T16:01:51.449Z,3.02
2023-05-20T16:04:18.946Z,3.03
2023-05-20T16:06:45.965Z,3.60
2023-05-20T16:09:12.605Z,5.60
2023-05-20T16:11:39.217Z,5.06
2023-05-20T16:14:05.884Z,9.77
2023-05-20T16:16:35.028Z,8.24
2023-05-20T16:19:02.541Z,9.10
2023-05-20T16:21:29.179Z,25.53
2023-05-20T16:23:55.978Z,19.68
2023-05-20T16:26:22.972Z,8.66
2023-05-20T16:28:49.756Z,11.55
2023-05-20T16:31:16.648Z,16.65
2023-05-20T16:33:43.295Z,3.82
2023-05-20T16:36:09.894Z,5.42
2023-05-20T16:38:36.525Z,20.06
2023-05-20T16:41:03.187Z,15.17
2023-05-20T16:43:29.810Z,7.09
2023-05-20T16:45:56.471Z,4.81
2023-05-20T16:48:23.026Z,4.80
2023-05-20T16:50:49.730Z,7.60
2023-05-20T16:53:16.736Z,4.79
2023-05-20T16:55:43.446Z,3.86
2023-05-20T16:58:10.151Z,4.67
2023-05-20T17:00:36.806Z,2.92
2023-05-20T17:03:03.838Z,2.80
2023-05-20T17:05:30.735Z,2.85
2023-05-20T17:08:00.072Z,2.69
2023-05-20T17:10:28.526Z,3.06
2023-05-20T17:12:55.415Z,2.65
2023-05-20T17:15:23.336Z,2.94
2023-05-20T17:17:50.583Z,2.82
2023-05-20T17:20:17.764Z,2.81
2023-05-20T17:22:44.479Z,2.86
2023-05-20T17:25:11.427Z,3.02
2023-05-20T17:27:39.184Z,3.35
2023-05-20T17:30:06.332Z,2.90
2023-05-20T17:32:33.031Z,3.06
2023-05-20T17:34:59.864Z,2.73
2023-05-20T17:37:26.516Z,2.51
2023-05-20T17:39:53.091Z,2.74
2023-05-20T17:42:19.680Z,2.91
2023-05-20T17:44:46.490Z,3.20
2023-05-20T17:47:13.121Z,3.01
2023-05-20T17:49:39.855Z,3.13
2023-05-20T17:52:06.789Z,3.15
2023-05-20T17:54:33.437Z,3.03
2023-05-20T17:57:00.164Z,3.20
2023-05-20T17:59:26.798Z,3.70
2023-05-20T18:01:53.499Z,3.40
2023-05-20T18:04:21.410Z,2.83
2023-05-20T18:06:48.045Z,3.02
2023-05-20T18:09:14.623Z,2.89
2023-05-20T18:11:41.271Z,3.24
2023-05-20T18:14:07.840Z,3.11
2023-05-20T18:16:34.885Z,3.21
2023-05-20T18:19:02.792Z,3.18
2023-05-20T18:21:29.642Z,3.67
2023-05-20T18:23:56.329Z,5.81
2023-05-20T18:26:23.039Z,4.26
2023-05-20T18:28:50.060Z,3.81
2023-05-20T18:31:17.173Z,5.56
2023-05-20T18:33:43.789Z,4.52
2023-05-20T18:36:10.584Z,3.92
2023-05-20T18:38:39.162Z,3.66
2023-05-20T18:41:07.925Z,3.85
2023-05-20T18:43:34.628Z,3.89
2023-05-20T18:46:01.394Z,3.63
2023-05-20T18:48:28.204Z,3.42
2023-05-20T18:50:56.209Z,3.74
2023-05-20T18:53:23.594Z,3.99
2023-05-20T18:55:51.121Z,3.72
2023-05-20T18:58:17.693Z,4.86
2023-05-20T19:00:44.336Z,4.45
2023-05-20T19:03:11.588Z,4.83
2023-05-20T19:05:38.732Z,4.91
2023-05-20T19:08:06.023Z,4.23
2023-05-20T19:10:33.067Z,4.00
2023-05-20T19:12:59.998Z,4.76
2023-05-20T19:15:26.754Z,4.07
2023-05-20T19:17:53.509Z,4.00
2023-05-20T19:20:20.559Z,3.74
2023-05-20T19:22:47.496Z,3.45
2023-05-20T19:25:14.279Z,3.90
2023-05-20T19:27:41.225Z,3.93
2023-05-20T19:30:10.763Z,4.49
2023-05-20T19:32:38.310Z,3.81
2023-05-20T19:35:08.568Z,3.82
2023-05-20T19:37:35.518Z,4.13
2023-05-20T19:40:02.137Z,4.05
2023-05-20T19:42:28.742Z,3.65
2023-05-20T19:44:56.155Z,3.51
2023-05-20T19:47:22.979Z,3.84
2023-05-20T19:49:49.672Z,4.58
2023-05-20T19:52:16.356Z,4.03
2023-05-20T19:54:43.226Z,4.01
2023-05-20T19:57:12.755Z,3.37
2023-05-20T19:59:39.329Z,3.24
2023-05-20T20:02:06.654Z,3.49
2023-05-20T20:04:33.328Z,3.57
2023-05-20T20:07:00.147Z,3.88
2023-05-20T20:09:27.810Z,4.13
2023-05-20T20:11:54.734Z,3.80
2023-05-20T20:14:21.632Z,4.07
2023-05-20T20:16:49.356Z,3.62
2023-05-20T20:19:22.816Z,3.54
2023-05-20T20:21:52.957Z,3.55
2023-05-20T20:24:20.098Z,3.54
2023-05-20T20:26:47.479Z,3.70
2023-05-20T20:29:14.936Z,4.43
2023-05-20T20:31:42.067Z,6.85
2023-05-20T20:34:08.841Z,9.01
2023-05-20T20:36:35.643Z,6.00
2023-05-20T20:39:04.963Z,4.41
2023-05-20T20:41:32.621Z,3.88
2023-05-20T20:43:59.872Z,3.43
2023-05-20T20:46:27.711Z,3.37
2023-05-20T20:48:54.356Z,3.62
2023-05-20T20:51:21.095Z,3.89
2023-05-20T20:53:48.703Z,3.78
2023-05-20T20:56:15.871Z,4.40
2023-05-20T20:58:42.531Z,4.41
2023-05-20T21:01:10.068Z,6.45
2023-05-20T21:03:40.213Z,8.00
2023-05-20T21:06:07.817Z,6.01
2023-05-20T21:08:34.780Z,4.64
2023-05-20T21:11:01.546Z,4.51
2023-05-20T21:13:29.809Z,4.37
2023-05-20T21:15:56.847Z,4.04
2023-05-20T21:18:23.889Z,4.16
2023-05-20T21:20:55.073Z,4.16
2023-05-20T21:23:22.738Z,3.92
2023-05-20T21:25:49.445Z,4.63
2023-05-20T21:28:16.267Z,4.21
2023-05-20T21:30:42.935Z,4.04
2023-05-20T21:33:09.627Z,4.01
2023-05-20T21:35:36.658Z,3.77
2023-05-20T21:38:03.567Z,3.80
2023-05-20T21:40:30.199Z,4.01
2023-05-20T21:42:56.741Z,3.85
2023-05-20T21:45:23.361Z,4.05
2023-05-20T21:47:50.190Z,4.20
2023-05-20T21:50:16.816Z,4.32
2023-05-20T21:52:43.439Z,4.11
2023-05-20T21:55:10.851Z,3.88
2023-05-20T21:57:38.085Z,3.93
2023-05-20T22:00:10.479Z,3.98
2023-05-20T22:02:37.493Z,3.97
2023-05-20T22:05:04.855Z,3.87
2023-05-20T22:07:31.754Z,3.94
2023-05-20T22:09:59.008Z,3.88
2023-05-20T22:12:25.881Z,4.13
2023-05-20T22:14:52.473Z,4.00
2023-05-20T22:17:20.334Z,4.44
2023-05-20T22:19:47.777Z,4.61
2023-05-20T22:22:14.691Z,4.54
2023-05-20T22:24:41.266Z,4.46
2023-05-20T22:27:07.893Z,4.26
2023-05-20T22:29:34.433Z,4.27
2023-05-20T22:32:01.122Z,4.63
2023-05-20T22:34:27.923Z,4.66
2023-05-20T22:36:54.578Z,4.52
2023-05-20T22:39:21.553Z,4.47
2023-05-20T22:41:48.206Z,4.45
2023-05-20T22:44:14.974Z,4.53
2023-05-20T22:46:41.589Z,4.36
2023-05-20T22:49:10.136Z,4.35
2023-05-20T22:51:38.596Z,4.18
2023-05-20T22:54:06.900Z,4.29
2023-05-20T22:56:34.213Z,4.27
2023-05-20T22:59:01.185Z,4.20
2023-05-20T23:01:27.869Z,4.15
2023-05-20T23:03:54.956Z,4.28
2023-05-20T23:06:22.598Z,4.31
2023-05-20T23:08:49.613Z,4.49
2023-05-20T23:11:16.599Z,4.14
2023-05-20T23:13:43.324Z,4.17
2023-05-20T23:16:28.022Z,4.44
2023-05-20T23:18:56.434Z,4.44
2023-05-20T23:21:23.363Z,4.09
2023-05-20T23:23:49.972Z,4.73
2023-05-20T23:26:16.576Z,4.44
2023-05-20T23:28:43.181Z,4.44
2023-05-20T23:31:09.964Z,4.71
2023-05-20T23:33:36.805Z,4.51
2023-05-20T23:36:03.604Z,4.49
2023-05-20T23:38:30.501Z,4.55
2023-05-20T23:40:57.206Z,4.66
2023-05-20T23:43:23.816Z,4.48
2023-05-20T23:45:50.451Z,4.66
2023-05-20T23:48:17.777Z,4.89
2023-05-20T23:50:46.074Z,4.76
2023-05-20T23:53:12.653Z,4.90
2023-05-20T23:55:39.218Z,4.95
2023-05-20T23:58:05.856Z,5.00
